Atlanta, Georgia
Traffic Map
Current Weather Conditions
Atlanta, Georgia
Broken Clouds
Broken Clouds

Feels Like: 3°
Wind Chill: Ceiling: 20000
Heat Index: Visibility: 10mi
Dew Point: Wind: 10mph
Humidity: 65% Direction: 90° (E)
Pressure: 30.34in Gusts: 0mph
Raw Report DataKATL 170852Z 09009KT 10SM BKN200 BKN250 06/00 A3034 RMK AO2 SLP274 T00610000 53003
Traffic Incident Summary
Active as of:
Severity:
Category:
InformationThere was an issue retrieving the traffic information for this location. Please try a different location or try again shortly.
Advertisements
At Last! Intellicast now available for iPhone and Android